Saint Bethlehem, Tennessee
Current Conditions -  °F | °C
As of 9:52 PM on Tuesday 27 Jan 2015 (Local Time) from KCKV Reporting Station
Overcast Overcast  
Wind Chill: 28°   Ceiling: 3100
Heat Index: 34°   Visibility: 10mi
Dew Point: 29°   Wind: 7mph
Humidity: 82%   Direction: 20°NNE
Pressure: 30.24"   Gusts: NA
Location:  36.57°N, 87.3°W
Report Text: KCKV 280352Z AUTO 02006KT 10SM OVC031 01/M02 A3024 RMK AO2 SLP242 T00111017
Loading
Personal Weather Stations






























Interactive Weather Map New forecast layout! Learn more

10-Day Weather Forecast

Advertisements
Track Severe Weather on mobile